sensor_id;sensor_type;location;lat;lon;timestamp;temperature;humidity
67529;DHT22;54366;51.980;5.856;2023-04-04T00:00:21;5.00;56.60
67529;DHT22;54366;51.980;5.856;2023-04-04T00:02:54;4.90;56.60
67529;DHT22;54366;51.980;5.856;2023-04-04T00:05:28;5.00;57.40
67529;DHT22;54366;51.980;5.856;2023-04-04T00:08:02;4.90;57.10
67529;DHT22;54366;51.980;5.856;2023-04-04T00:10:35;4.80;56.80
67529;DHT22;54366;51.980;5.856;2023-04-04T00:13:01;4.90;57.30
67529;DHT22;54366;51.980;5.856;2023-04-04T00:15:34;4.80;56.40
67529;DHT22;54366;51.980;5.856;2023-04-04T00:18:08;4.90;56.10
67529;DHT22;54366;51.980;5.856;2023-04-04T00:20:41;4.90;56.40
67529;DHT22;54366;51.980;5.856;2023-04-04T00:23:07;4.80;56.70
67529;DHT22;54366;51.980;5.856;2023-04-04T00:25:42;4.80;56.30
67529;DHT22;54366;51.980;5.856;2023-04-04T00:28:15;4.80;56.80
67529;DHT22;54366;51.980;5.856;2023-04-04T00:30:48;4.70;56.70
67529;DHT22;54366;51.980;5.856;2023-04-04T00:33:21;4.70;57.30
67529;DHT22;54366;51.980;5.856;2023-04-04T00:35:47;4.70;57.20
67529;DHT22;54366;51.980;5.856;2023-04-04T00:38:21;4.70;57.60
67529;DHT22;54366;51.980;5.856;2023-04-04T00:40:48;4.60;57.70
67529;DHT22;54366;51.980;5.856;2023-04-04T00:43:28;4.60;57.60
67529;DHT22;54366;51.980;5.856;2023-04-04T00:46:01;4.60;57.90
67529;DHT22;54366;51.980;5.856;2023-04-04T00:48:28;4.50;58.10
67529;DHT22;54366;51.980;5.856;2023-04-04T00:51:01;4.50;57.70
67529;DHT22;54366;51.980;5.856;2023-04-04T00:53:27;4.50;57.90
67529;DHT22;54366;51.980;5.856;2023-04-04T00:56:00;4.50;57.90
67529;DHT22;54366;51.980;5.856;2023-04-04T00:58:33;4.50;57.90
67529;DHT22;54366;51.980;5.856;2023-04-04T01:01:06;4.50;57.50
67529;DHT22;54366;51.980;5.856;2023-04-04T01:03:33;4.40;57.40
67529;DHT22;54366;51.980;5.856;2023-04-04T01:06:07;4.40;57.10
67529;DHT22;54366;51.980;5.856;2023-04-04T01:08:40;4.50;57.20
67529;DHT22;54366;51.980;5.856;2023-04-04T01:11:14;4.40;57.00
67529;DHT22;54366;51.980;5.856;2023-04-04T01:13:48;4.40;56.70
67529;DHT22;54366;51.980;5.856;2023-04-04T01:16:22;4.50;56.70
67529;DHT22;54366;51.980;5.856;2023-04-04T01:18:50;4.40;56.70
67529;DHT22;54366;51.980;5.856;2023-04-04T01:21:23;4.50;56.60
67529;DHT22;54366;51.980;5.856;2023-04-04T01:24:04;4.40;56.60
67529;DHT22;54366;51.980;5.856;2023-04-04T01:26:49;4.40;56.70
67529;DHT22;54366;51.980;5.856;2023-04-04T01:29:22;4.40;56.80
67529;DHT22;54366;51.980;5.856;2023-04-04T01:32:03;4.40;56.90
67529;DHT22;54366;51.980;5.856;2023-04-04T01:40:47;4.40;57.00
67529;DHT22;54366;51.980;5.856;2023-04-04T01:43:21;4.40;57.10
67529;DHT22;54366;51.980;5.856;2023-04-04T01:46:02;4.30;57.30
67529;DHT22;54366;51.980;5.856;2023-04-04T01:48:35;4.30;57.40
67529;DHT22;54366;51.980;5.856;2023-04-04T01:51:08;4.20;57.60
67529;DHT22;54366;51.980;5.856;2023-04-04T01:53:34;4.20;58.00
67529;DHT22;54366;51.980;5.856;2023-04-04T01:56:07;4.20;58.00
67529;DHT22;54366;51.980;5.856;2023-04-04T01:58:41;4.10;57.80
67529;DHT22;54366;51.980;5.856;2023-04-04T02:01:15;4.10;58.10
67529;DHT22;54366;51.980;5.856;2023-04-04T02:03:48;4.00;58.10
67529;DHT22;54366;51.980;5.856;2023-04-04T02:06:21;4.00;58.20
67529;DHT22;54366;51.980;5.856;2023-04-04T02:08:54;4.00;58.20
67529;DHT22;54366;51.980;5.856;2023-04-04T02:11:27;4.00;59.00
67529;DHT22;54366;51.980;5.856;2023-04-04T02:13:53;4.00;59.50
67529;DHT22;54366;51.980;5.856;2023-04-04T02:16:27;3.90;59.20
67529;DHT22;54366;51.980;5.856;2023-04-04T02:19:00;3.90;59.30
67529;DHT22;54366;51.980;5.856;2023-04-04T02:21:36;3.80;59.90
67529;DHT22;54366;51.980;5.856;2023-04-04T02:24:08;3.80;59.70
67529;DHT22;54366;51.980;5.856;2023-04-04T02:26:34;3.80;59.70
67529;DHT22;54366;51.980;5.856;2023-04-04T02:29:07;3.70;59.40
67529;DHT22;54366;51.980;5.856;2023-04-04T02:31:40;3.70;59.50
67529;DHT22;54366;51.980;5.856;2023-04-04T02:34:13;3.70;59.50
67529;DHT22;54366;51.980;5.856;2023-04-04T02:36:39;3.60;59.50
67529;DHT22;54366;51.980;5.856;2023-04-04T02:39:13;3.60;59.80
67529;DHT22;54366;51.980;5.856;2023-04-04T02:41:49;3.50;59.80
67529;DHT22;54366;51.980;5.856;2023-04-04T02:44:16;3.50;59.90
67529;DHT22;54366;51.980;5.856;2023-04-04T02:46:51;3.50;60.30
67529;DHT22;54366;51.980;5.856;2023-04-04T02:49:28;3.40;60.30
67529;DHT22;54366;51.980;5.856;2023-04-04T02:52:01;3.40;60.20
67529;DHT22;54366;51.980;5.856;2023-04-04T02:54:38;3.30;60.40
67529;DHT22;54366;51.980;5.856;2023-04-04T02:57:19;3.30;60.50
67529;DHT22;54366;51.980;5.856;2023-04-04T02:59:53;3.30;61.10
67529;DHT22;54366;51.980;5.856;2023-04-04T03:02:19;3.20;61.50
67529;DHT22;54366;51.980;5.856;2023-04-04T03:04:52;3.20;62.20
67529;DHT22;54366;51.980;5.856;2023-04-04T03:07:25;3.10;62.30
67529;DHT22;54366;51.980;5.856;2023-04-04T03:09:53;3.10;62.30
67529;DHT22;54366;51.980;5.856;2023-04-04T03:12:26;3.10;62.40
67529;DHT22;54366;51.980;5.856;2023-04-04T03:14:59;3.10;62.70
67529;DHT22;54366;51.980;5.856;2023-04-04T03:17:34;3.00;62.70
67529;DHT22;54366;51.980;5.856;2023-04-04T03:20:07;3.10;62.30
67529;DHT22;54366;51.980;5.856;2023-04-04T03:22:41;3.00;61.90
67529;DHT22;54366;51.980;5.856;2023-04-04T03:25:08;3.00;61.50
67529;DHT22;54366;51.980;5.856;2023-04-04T03:27:41;2.90;61.50
67529;DHT22;54366;51.980;5.856;2023-04-04T03:30:20;2.90;61.60
67529;DHT22;54366;51.980;5.856;2023-04-04T03:32:53;2.80;61.80
67529;DHT22;54366;51.980;5.856;2023-04-04T03:35:26;2.70;61.90
67529;DHT22;54366;51.980;5.856;2023-04-04T03:38:02;2.70;61.80
67529;DHT22;54366;51.980;5.856;2023-04-04T03:40:28;2.70;62.30
67529;DHT22;54366;51.980;5.856;2023-04-04T03:43:12;2.70;62.50
67529;DHT22;54366;51.980;5.856;2023-04-04T03:46:02;2.60;63.10
67529;DHT22;54366;51.980;5.856;2023-04-04T03:48:45;2.50;63.40
67529;DHT22;54366;51.980;5.856;2023-04-04T03:51:11;2.50;63.40
67529;DHT22;54366;51.980;5.856;2023-04-04T03:53:44;2.60;63.60
67529;DHT22;54366;51.980;5.856;2023-04-04T03:56:17;2.50;63.30
67529;DHT22;54366;51.980;5.856;2023-04-04T03:58:50;2.60;63.20
67529;DHT22;54366;51.980;5.856;2023-04-04T04:01:20;2.60;63.50
67529;DHT22;54366;51.980;5.856;2023-04-04T04:03:53;2.60;63.80
67529;DHT22;54366;51.980;5.856;2023-04-04T04:06:26;2.50;63.40
67529;DHT22;54366;51.980;5.856;2023-04-04T04:08:59;2.50;63.80
67529;DHT22;54366;51.980;5.856;2023-04-04T04:11:32;2.50;63.30
67529;DHT22;54366;51.980;5.856;2023-04-04T04:14:05;2.50;63.70
67529;DHT22;54366;51.980;5.856;2023-04-04T04:16:32;2.50;63.70
67529;DHT22;54366;51.980;5.856;2023-04-04T04:19:05;2.50;63.50
67529;DHT22;54366;51.980;5.856;2023-04-04T04:21:40;2.50;63.50
67529;DHT22;54366;51.980;5.856;2023-04-04T04:24:08;2.50;63.20
67529;DHT22;54366;51.980;5.856;2023-04-04T04:26:41;2.50;63.10
67529;DHT22;54366;51.980;5.856;2023-04-04T04:29:15;2.40;63.00
67529;DHT22;54366;51.980;5.856;2023-04-04T04:31:48;2.40;63.00
67529;DHT22;54366;51.980;5.856;2023-04-04T04:34:15;2.30;63.20
67529;DHT22;54366;51.980;5.856;2023-04-04T04:36:47;2.30;63.50
67529;DHT22;54366;51.980;5.856;2023-04-04T04:39:26;2.30;63.80
67529;DHT22;54366;51.980;5.856;2023-04-04T04:42:18;2.30;63.60
67529;DHT22;54366;51.980;5.856;2023-04-04T04:45:03;2.20;63.80
67529;DHT22;54366;51.980;5.856;2023-04-04T04:47:46;2.20;64.70
67529;DHT22;54366;51.980;5.856;2023-04-04T04:50:20;2.20;65.20
67529;DHT22;54366;51.980;5.856;2023-04-04T04:52:53;2.20;65.50
67529;DHT22;54366;51.980;5.856;2023-04-04T04:55:26;2.20;65.60
67529;DHT22;54366;51.980;5.856;2023-04-04T04:58:05;2.20;65.90
67529;DHT22;54366;51.980;5.856;2023-04-04T05:00:43;2.20;65.80
67529;DHT22;54366;51.980;5.856;2023-04-04T05:03:16;2.20;65.70
67529;DHT22;54366;51.980;5.856;2023-04-04T05:05:47;2.20;65.90
67529;DHT22;54366;51.980;5.856;2023-04-04T05:08:21;2.20;65.90
67529;DHT22;54366;51.980;5.856;2023-04-04T05:10:59;2.20;65.60
67529;DHT22;54366;51.980;5.856;2023-04-04T05:13:33;2.10;65.50
67529;DHT22;54366;51.980;5.856;2023-04-04T05:16:00;2.10;65.50
67529;DHT22;54366;51.980;5.856;2023-04-04T05:18:35;2.20;65.20
67529;DHT22;54366;51.980;5.856;2023-04-04T05:21:02;2.10;64.90
67529;DHT22;54366;51.980;5.856;2023-04-04T05:23:35;2.20;64.80
67529;DHT22;54366;51.980;5.856;2023-04-04T05:26:08;2.00;64.50
67529;DHT22;54366;51.980;5.856;2023-04-04T05:28:37;2.10;64.50
67529;DHT22;54366;51.980;5.856;2023-04-04T05:31:12;2.00;64.70
67529;DHT22;54366;51.980;5.856;2023-04-04T05:33:45;2.00;65.30
67529;DHT22;54366;51.980;5.856;2023-04-04T05:36:27;2.10;65.50
67529;DHT22;54366;51.980;5.856;2023-04-04T05:39:04;2.00;65.40
67529;DHT22;54366;51.980;5.856;2023-04-04T05:41:45;2.00;66.20
67529;DHT22;54366;51.980;5.856;2023-04-04T05:44:26;2.00;66.30
67529;DHT22;54366;51.980;5.856;2023-04-04T05:47:07;2.00;66.30
67529;DHT22;54366;51.980;5.856;2023-04-04T05:49:35;2.00;65.80
67529;DHT22;54366;51.980;5.856;2023-04-04T05:52:08;2.00;65.50
67529;DHT22;54366;51.980;5.856;2023-04-04T05:54:42;2.00;65.30
67529;DHT22;54366;51.980;5.856;2023-04-04T05:57:23;2.10;65.40
67529;DHT22;54366;51.980;5.856;2023-04-04T05:59:59;2.00;65.20
67529;DHT22;54366;51.980;5.856;2023-04-04T06:02:40;2.10;65.00
67529;DHT22;54366;51.980;5.856;2023-04-04T06:05:17;2.10;65.30
67529;DHT22;54366;51.980;5.856;2023-04-04T06:07:50;2.10;65.80
67529;DHT22;54366;51.980;5.856;2023-04-04T06:10:23;2.10;65.70
67529;DHT22;54366;51.980;5.856;2023-04-04T06:12:56;2.20;65.80
67529;DHT22;54366;51.980;5.856;2023-04-04T06:15:22;2.20;66.30
67529;DHT22;54366;51.980;5.856;2023-04-04T06:17:55;2.20;67.30
67529;DHT22;54366;51.980;5.856;2023-04-04T06:20:28;2.20;67.80
67529;DHT22;54366;51.980;5.856;2023-04-04T06:23:01;2.30;67.90
67529;DHT22;54366;51.980;5.856;2023-04-04T06:25:39;2.40;68.20
67529;DHT22;54366;51.980;5.856;2023-04-04T06:28:05;2.40;68.20
67529;DHT22;54366;51.980;5.856;2023-04-04T06:30:39;2.50;68.50
67529;DHT22;54366;51.980;5.856;2023-04-04T06:33:14;2.50;68.50
67529;DHT22;54366;51.980;5.856;2023-04-04T06:35:46;2.60;69.00
67529;DHT22;54366;51.980;5.856;2023-04-04T06:38:19;2.70;68.80
67529;DHT22;54366;51.980;5.856;2023-04-04T06:40:52;2.80;68.40
67529;DHT22;54366;51.980;5.856;2023-04-04T06:43:19;2.80;68.30
67529;DHT22;54366;51.980;5.856;2023-04-04T06:46:00;2.90;67.80
67529;DHT22;54366;51.980;5.856;2023-04-04T06:48:40;3.10;67.20
67529;DHT22;54366;51.980;5.856;2023-04-04T06:51:07;3.20;66.10
67529;DHT22;54366;51.980;5.856;2023-04-04T06:53:44;3.30;66.10
67529;DHT22;54366;51.980;5.856;2023-04-04T06:56:17;3.50;64.80
67529;DHT22;54366;51.980;5.856;2023-04-04T06:58:50;3.70;63.50
67529;DHT22;54366;51.980;5.856;2023-04-04T07:01:23;3.90;63.20
67529;DHT22;54366;51.980;5.856;2023-04-04T07:03:56;4.10;61.80
67529;DHT22;54366;51.980;5.856;2023-04-04T07:06:29;4.30;61.10
67529;DHT22;54366;51.980;5.856;2023-04-04T07:09:02;4.50;60.10
67529;DHT22;54366;51.980;5.856;2023-04-04T07:11:36;4.60;59.60
67529;DHT22;54366;51.980;5.856;2023-04-04T07:14:02;4.90;58.10
67529;DHT22;54366;51.980;5.856;2023-04-04T07:16:35;5.00;58.00
67529;DHT22;54366;51.980;5.856;2023-04-04T07:19:08;5.00;58.30
67529;DHT22;54366;51.980;5.856;2023-04-04T07:21:34;5.10;58.30
67529;DHT22;54366;51.980;5.856;2023-04-04T07:24:07;5.30;57.60
67529;DHT22;54366;51.980;5.856;2023-04-04T07:26:41;5.40;56.20
67529;DHT22;54366;51.980;5.856;2023-04-04T07:29:14;5.50;56.40
67529;DHT22;54366;51.980;5.856;2023-04-04T07:31:47;5.60;56.30
67529;DHT22;54366;51.980;5.856;2023-04-04T07:34:13;5.70;55.80
67529;DHT22;54366;51.980;5.856;2023-04-04T07:36:46;5.90;55.30
67529;DHT22;54366;51.980;5.856;2023-04-04T07:39:13;6.00;55.10
67529;DHT22;54366;51.980;5.856;2023-04-04T07:41:46;6.10;54.90
67529;DHT22;54366;51.980;5.856;2023-04-04T07:44:19;6.30;54.30
67529;DHT22;54366;51.980;5.856;2023-04-04T07:46:58;6.40;54.20
67529;DHT22;54366;51.980;5.856;2023-04-04T07:49:31;6.50;53.40
67529;DHT22;54366;51.980;5.856;2023-04-04T07:52:04;6.60;51.80
67529;DHT22;54366;51.980;5.856;2023-04-04T07:54:31;6.70;52.10
67529;DHT22;54366;51.980;5.856;2023-04-04T07:57:04;6.80;51.80
67529;DHT22;54366;51.980;5.856;2023-04-04T07:59:37;7.00;51.60
67529;DHT22;54366;51.980;5.856;2023-04-04T08:02:03;7.00;50.80
67529;DHT22;54366;51.980;5.856;2023-04-04T08:04:36;7.10;50.70
67529;DHT22;54366;51.980;5.856;2023-04-04T08:07:09;7.20;51.80
67529;DHT22;54366;51.980;5.856;2023-04-04T08:09:42;7.40;51.80
67529;DHT22;54366;51.980;5.856;2023-04-04T08:12:08;7.50;52.10
67529;DHT22;54366;51.980;5.856;2023-04-04T08:14:41;7.70;51.60
67529;DHT22;54366;51.980;5.856;2023-04-04T08:17:14;7.80;50.50
67529;DHT22;54366;51.980;5.856;2023-04-04T08:19:50;8.00;50.10
67529;DHT22;54366;51.980;5.856;2023-04-04T08:22:16;8.20;49.70
67529;DHT22;54366;51.980;5.856;2023-04-04T08:24:50;8.30;50.00
67529;DHT22;54366;51.980;5.856;2023-04-04T08:27:23;8.40;49.30
67529;DHT22;54366;51.980;5.856;2023-04-04T08:29:49;8.50;48.40
67529;DHT22;54366;51.980;5.856;2023-04-04T08:32:22;8.60;48.30
67529;DHT22;54366;51.980;5.856;2023-04-04T08:34:55;8.70;48.00
67529;DHT22;54366;51.980;5.856;2023-04-04T08:37:28;8.80;46.20
67529;DHT22;54366;51.980;5.856;2023-04-04T08:40:03;8.90;45.90
67529;DHT22;54366;51.980;5.856;2023-04-04T08:42:37;8.90;45.50
67529;DHT22;54366;51.980;5.856;2023-04-04T08:45:11;9.00;45.20
67529;DHT22;54366;51.980;5.856;2023-04-04T08:48:02;9.10;45.30
67529;DHT22;54366;51.980;5.856;2023-04-04T08:50:40;9.20;45.40
67529;DHT22;54366;51.980;5.856;2023-04-04T08:53:15;9.40;45.20
67529;DHT22;54366;51.980;5.856;2023-04-04T08:55:48;9.50;43.50
67529;DHT22;54366;51.980;5.856;2023-04-04T08:58:16;9.60;43.70
67529;DHT22;54366;51.980;5.856;2023-04-04T09:00:54;9.70;43.90
67529;DHT22;54366;51.980;5.856;2023-04-04T09:03:28;9.90;43.60
67529;DHT22;54366;51.980;5.856;2023-04-04T09:06:04;10.10;43.50
67529;DHT22;54366;51.980;5.856;2023-04-04T09:08:38;10.20;43.10
67529;DHT22;54366;51.980;5.856;2023-04-04T09:11:06;10.30;42.10
67529;DHT22;54366;51.980;5.856;2023-04-04T09:13:41;10.40;41.00
67529;DHT22;54366;51.980;5.856;2023-04-04T09:16:16;10.50;41.60
67529;DHT22;54366;51.980;5.856;2023-04-04T09:18:43;10.70;41.70
67529;DHT22;54366;51.980;5.856;2023-04-04T09:21:15;10.80;41.60
67529;DHT22;54366;51.980;5.856;2023-04-04T09:24:03;10.90;40.30
67529;DHT22;54366;51.980;5.856;2023-04-04T09:26:47;10.90;40.50
67529;DHT22;54366;51.980;5.856;2023-04-04T09:29:21;11.10;40.20
67529;DHT22;54366;51.980;5.856;2023-04-04T09:31:47;11.10;38.90
67529;DHT22;54366;51.980;5.856;2023-04-04T09:34:23;11.20;39.20
67529;DHT22;54366;51.980;5.856;2023-04-04T09:37:04;11.30;38.30
67529;DHT22;54366;51.980;5.856;2023-04-04T09:39:52;11.30;39.30
67529;DHT22;54366;51.980;5.856;2023-04-04T09:42:25;11.40;38.90
67529;DHT22;54366;51.980;5.856;2023-04-04T09:44:58;11.40;38.60
67529;DHT22;54366;51.980;5.856;2023-04-04T09:47:32;11.60;38.50
67529;DHT22;54366;51.980;5.856;2023-04-04T09:50:23;11.70;38.80
67529;DHT22;54366;51.980;5.856;2023-04-04T09:52:57;11.80;38.90
67529;DHT22;54366;51.980;5.856;2023-04-04T09:55:51;11.90;37.80
67529;DHT22;54366;51.980;5.856;2023-04-04T09:58:28;12.00;37.40
67529;DHT22;54366;51.980;5.856;2023-04-04T10:01:07;12.00;37.70
67529;DHT22;54366;51.980;5.856;2023-04-04T10:03:41;12.10;38.30
67529;DHT22;54366;51.980;5.856;2023-04-04T10:06:08;12.20;37.80
67529;DHT22;54366;51.980;5.856;2023-04-04T10:08:44;12.30;37.10
67529;DHT22;54366;51.980;5.856;2023-04-04T10:11:34;12.30;36.80
67529;DHT22;54366;51.980;5.856;2023-04-04T10:14:08;12.40;36.40
67529;DHT22;54366;51.980;5.856;2023-04-04T10:16:44;12.50;37.30
67529;DHT22;54366;51.980;5.856;2023-04-04T10:19:17;12.60;37.50
67529;DHT22;54366;51.980;5.856;2023-04-04T10:21:51;12.80;37.00
67529;DHT22;54366;51.980;5.856;2023-04-04T10:24:18;12.90;34.90
67529;DHT22;54366;51.980;5.856;2023-04-04T10:26:51;12.80;35.90
67529;DHT22;54366;51.980;5.856;2023-04-04T10:29:25;12.90;36.10
67529;DHT22;54366;51.980;5.856;2023-04-04T10:32:04;12.90;35.80
67529;DHT22;54366;51.980;5.856;2023-04-04T10:34:46;13.10;36.40
67529;DHT22;54366;51.980;5.856;2023-04-04T10:37:25;13.20;35.10
67529;DHT22;54366;51.980;5.856;2023-04-04T10:40:12;13.20;34.90
67529;DHT22;54366;51.980;5.856;2023-04-04T10:42:46;13.40;35.30
67529;DHT22;54366;51.980;5.856;2023-04-04T10:45:28;13.40;35.70
67529;DHT22;54366;51.980;5.856;2023-04-04T10:48:17;13.50;34.60
67529;DHT22;54366;51.980;5.856;2023-04-04T10:50:51;13.50;36.30
67529;DHT22;54366;51.980;5.856;2023-04-04T10:53:18;13.60;35.60
67529;DHT22;54366;51.980;5.856;2023-04-04T10:55:52;13.70;36.70
67529;DHT22;54366;51.980;5.856;2023-04-04T10:58:26;13.70;34.50
67529;DHT22;54366;51.980;5.856;2023-04-04T11:00:54;13.70;34.60
67529;DHT22;54366;51.980;5.856;2023-04-04T11:03:27;13.70;35.40
67529;DHT22;54366;51.980;5.856;2023-04-04T11:06:13;13.80;34.80
67529;DHT22;54366;51.980;5.856;2023-04-04T11:08:53;13.90;34.80
67529;DHT22;54366;51.980;5.856;2023-04-04T11:11:27;13.90;35.00
67529;DHT22;54366;51.980;5.856;2023-04-04T11:13:59;14.10;34.80
67529;DHT22;54366;51.980;5.856;2023-04-04T11:16:53;14.20;34.80
67529;DHT22;54366;51.980;5.856;2023-04-04T11:19:29;14.20;33.70
67529;DHT22;54366;51.980;5.856;2023-04-04T11:22:03;14.10;34.30
67529;DHT22;54366;51.980;5.856;2023-04-04T11:24:41;14.20;35.60
67529;DHT22;54366;51.980;5.856;2023-04-04T11:27:16;14.20;34.30
67529;DHT22;54366;51.980;5.856;2023-04-04T11:29:50;14.20;35.00
67529;DHT22;54366;51.980;5.856;2023-04-04T11:32:50;14.30;34.50
67529;DHT22;54366;51.980;5.856;2023-04-04T11:35:23;14.30;34.20
67529;DHT22;54366;51.980;5.856;2023-04-04T11:37:59;14.40;34.00
67529;DHT22;54366;51.980;5.856;2023-04-04T11:40:37;14.40;34.10
67529;DHT22;54366;51.980;5.856;2023-04-04T11:43:13;14.60;35.30
67529;DHT22;54366;51.980;5.856;2023-04-04T11:45:44;14.70;34.60
67529;DHT22;54366;51.980;5.856;2023-04-04T11:48:18;14.80;34.40
67529;DHT22;54366;51.980;5.856;2023-04-04T11:51:05;14.80;33.60
67529;DHT22;54366;51.980;5.856;2023-04-04T11:53:41;14.90;33.50
67529;DHT22;54366;51.980;5.856;2023-04-04T11:56:14;15.00;33.60
67529;DHT22;54366;51.980;5.856;2023-04-04T11:58:47;15.10;34.00
67529;DHT22;54366;51.980;5.856;2023-04-04T12:01:20;15.20;33.40
67529;DHT22;54366;51.980;5.856;2023-04-04T12:03:53;15.30;34.10
67529;DHT22;54366;51.980;5.856;2023-04-04T12:06:19;15.30;31.80
67529;DHT22;54366;51.980;5.856;2023-04-04T12:08:52;15.20;32.70
67529;DHT22;54366;51.980;5.856;2023-04-04T12:11:25;15.10;32.00
67529;DHT22;54366;51.980;5.856;2023-04-04T12:14:00;15.20;32.40
67529;DHT22;54366;51.980;5.856;2023-04-04T12:16:26;15.20;33.10
67529;DHT22;54366;51.980;5.856;2023-04-04T12:19:02;15.30;33.20
67529;DHT22;54366;51.980;5.856;2023-04-04T12:21:35;15.40;32.90
67529;DHT22;54366;51.980;5.856;2023-04-04T12:24:08;15.50;32.90
67529;DHT22;54366;51.980;5.856;2023-04-04T12:26:37;15.60;31.60
67529;DHT22;54366;51.980;5.856;2023-04-04T12:29:11;15.50;32.10
67529;DHT22;54366;51.980;5.856;2023-04-04T12:31:45;15.60;32.50
67529;DHT22;54366;51.980;5.856;2023-04-04T12:34:22;15.60;31.50
67529;DHT22;54366;51.980;5.856;2023-04-04T12:36:57;15.60;32.50
67529;DHT22;54366;51.980;5.856;2023-04-04T12:39:30;15.70;32.30
67529;DHT22;54366;51.980;5.856;2023-04-04T12:42:03;15.70;32.10
67529;DHT22;54366;51.980;5.856;2023-04-04T12:44:38;15.70;31.50
67529;DHT22;54366;51.980;5.856;2023-04-04T12:47:17;15.60;31.90
67529;DHT22;54366;51.980;5.856;2023-04-04T12:50:07;15.60;31.40
67529;DHT22;54366;51.980;5.856;2023-04-04T12:52:40;15.60;30.10
67529;DHT22;54366;51.980;5.856;2023-04-04T12:55:13;15.50;30.80
67529;DHT22;54366;51.980;5.856;2023-04-04T12:57:52;15.50;31.60
67529;DHT22;54366;51.980;5.856;2023-04-04T13:00:25;15.70;31.80
67529;DHT22;54366;51.980;5.856;2023-04-04T13:02:58;15.60;30.20
67529;DHT22;54366;51.980;5.856;2023-04-04T13:05:24;15.70;31.40
67529;DHT22;54366;51.980;5.856;2023-04-04T13:08:05;15.70;31.70
67529;DHT22;54366;51.980;5.856;2023-04-04T13:11:00;15.70;31.80
67529;DHT22;54366;51.980;5.856;2023-04-04T13:13:40;15.70;31.10
67529;DHT22;54366;51.980;5.856;2023-04-04T13:16:30;15.70;30.80
67529;DHT22;54366;51.980;5.856;2023-04-04T13:19:03;15.80;31.50
67529;DHT22;54366;51.980;5.856;2023-04-04T13:21:38;15.80;31.40
67529;DHT22;54366;51.980;5.856;2023-04-04T13:24:11;15.80;31.50
67529;DHT22;54366;51.980;5.856;2023-04-04T13:26:37;15.70;31.40
67529;DHT22;54366;51.980;5.856;2023-04-04T13:29:10;15.60;32.30
67529;DHT22;54366;51.980;5.856;2023-04-04T13:31:43;15.60;31.70
67529;DHT22;54366;51.980;5.856;2023-04-04T13:34:16;15.50;32.20
67529;DHT22;54366;51.980;5.856;2023-04-04T13:36:42;15.30;31.70
67529;DHT22;54366;51.980;5.856;2023-04-04T13:39:15;15.30;33.00
67529;DHT22;54366;51.980;5.856;2023-04-04T13:41:48;15.20;31.60
67529;DHT22;54366;51.980;5.856;2023-04-04T13:44:15;15.10;31.90
67529;DHT22;54366;51.980;5.856;2023-04-04T13:46:48;14.90;31.20
67529;DHT22;54366;51.980;5.856;2023-04-04T13:49:27;14.80;31.60
67529;DHT22;54366;51.980;5.856;2023-04-04T13:52:07;14.70;31.80
67529;DHT22;54366;51.980;5.856;2023-04-04T13:54:40;14.60;32.30
67529;DHT22;54366;51.980;5.856;2023-04-04T13:57:13;14.60;31.70
67529;DHT22;54366;51.980;5.856;2023-04-04T13:59:46;14.50;30.40
67529;DHT22;54366;51.980;5.856;2023-04-04T14:02:20;14.50;31.90
67529;DHT22;54366;51.980;5.856;2023-04-04T14:04:47;14.50;32.10
67529;DHT22;54366;51.980;5.856;2023-04-04T14:07:20;14.50;32.50
67529;DHT22;54366;51.980;5.856;2023-04-04T14:09:53;14.50;32.00
67529;DHT22;54366;51.980;5.856;2023-04-04T14:12:26;14.50;32.80
67529;DHT22;54366;51.980;5.856;2023-04-04T14:14:59;14.50;31.90
67529;DHT22;54366;51.980;5.856;2023-04-04T14:17:32;14.40;31.40
67529;DHT22;54366;51.980;5.856;2023-04-04T14:20:07;14.30;30.90
67529;DHT22;54366;51.980;5.856;2023-04-04T14:22:40;14.20;30.80
67529;DHT22;54366;51.980;5.856;2023-04-04T14:25:13;14.20;31.00
67529;DHT22;54366;51.980;5.856;2023-04-04T14:27:46;14.00;31.20
67529;DHT22;54366;51.980;5.856;2023-04-04T14:30:13;13.90;31.40
67529;DHT22;54366;51.980;5.856;2023-04-04T14:32:46;13.80;31.30
67529;DHT22;54366;51.980;5.856;2023-04-04T14:35:12;13.70;30.70
67529;DHT22;54366;51.980;5.856;2023-04-04T14:37:45;13.60;30.80
67529;DHT22;54366;51.980;5.856;2023-04-04T14:40:18;13.50;31.80
67529;DHT22;54366;51.980;5.856;2023-04-04T14:42:44;13.50;31.80
67529;DHT22;54366;51.980;5.856;2023-04-04T14:45:17;13.50;31.40
67529;DHT22;54366;51.980;5.856;2023-04-04T14:47:44;13.40;31.80
67529;DHT22;54366;51.980;5.856;2023-04-04T14:50:23;13.50;32.50
67529;DHT22;54366;51.980;5.856;2023-04-04T14:52:56;13.50;31.80
67529;DHT22;54366;51.980;5.856;2023-04-04T14:55:29;13.60;32.70
67529;DHT22;54366;51.980;5.856;2023-04-04T14:58:02;13.60;32.10
67529;DHT22;54366;51.980;5.856;2023-04-04T15:00:35;13.60;32.70
67529;DHT22;54366;51.980;5.856;2023-04-04T15:03:01;13.50;31.90
67529;DHT22;54366;51.980;5.856;2023-04-04T15:05:34;13.50;32.50
67529;DHT22;54366;51.980;5.856;2023-04-04T15:08:01;13.50;32.40
67529;DHT22;54366;51.980;5.856;2023-04-04T15:10:34;13.40;31.50
67529;DHT22;54366;51.980;5.856;2023-04-04T15:13:07;13.40;31.80
67529;DHT22;54366;51.980;5.856;2023-04-04T15:15:33;13.40;31.80
67529;DHT22;54366;51.980;5.856;2023-04-04T15:18:06;13.30;31.50
67529;DHT22;54366;51.980;5.856;2023-04-04T15:20:39;13.30;30.80
67529;DHT22;54366;51.980;5.856;2023-04-04T15:23:05;13.20;30.80
67529;DHT22;54366;51.980;5.856;2023-04-04T15:25:38;13.10;31.30
67529;DHT22;54366;51.980;5.856;2023-04-04T15:28:11;13.10;30.10
67529;DHT22;54366;51.980;5.856;2023-04-04T15:30:44;13.20;31.40
67529;DHT22;54366;51.980;5.856;2023-04-04T15:33:17;13.20;29.70
67529;DHT22;54366;51.980;5.856;2023-04-04T15:35:50;13.30;30.00
67529;DHT22;54366;51.980;5.856;2023-04-04T15:38:17;13.30;29.60
67529;DHT22;54366;51.980;5.856;2023-04-04T15:40:50;13.30;29.60
67529;DHT22;54366;51.980;5.856;2023-04-04T15:43:16;13.30;30.00
67529;DHT22;54366;51.980;5.856;2023-04-04T15:45:49;13.30;29.70
67529;DHT22;54366;51.980;5.856;2023-04-04T15:48:22;13.20;30.20
67529;DHT22;54366;51.980;5.856;2023-04-04T15:50:58;13.30;30.50
67529;DHT22;54366;51.980;5.856;2023-04-04T15:53:38;13.30;30.60
67529;DHT22;54366;51.980;5.856;2023-04-04T15:56:04;13.20;30.80
67529;DHT22;54366;51.980;5.856;2023-04-04T15:58:37;13.30;31.20
67529;DHT22;54366;51.980;5.856;2023-04-04T16:01:05;13.20;31.00
67529;DHT22;54366;51.980;5.856;2023-04-04T16:03:38;13.10;31.50
67529;DHT22;54366;51.980;5.856;2023-04-04T16:06:11;13.10;30.70
67529;DHT22;54366;51.980;5.856;2023-04-04T16:08:44;13.00;30.30
67529;DHT22;54366;51.980;5.856;2023-04-04T16:11:17;13.00;30.30
67529;DHT22;54366;51.980;5.856;2023-04-04T16:13:50;12.90;30.70
67529;DHT22;54366;51.980;5.856;2023-04-04T16:16:17;12.90;30.40
67529;DHT22;54366;51.980;5.856;2023-04-04T16:18:50;12.90;31.00
67529;DHT22;54366;51.980;5.856;2023-04-04T16:21:16;12.80;31.40
67529;DHT22;54366;51.980;5.856;2023-04-04T16:23:49;12.90;32.00
67529;DHT22;54366;51.980;5.856;2023-04-04T16:26:16;12.90;32.00